Time;durP1;ratioP1;P1;durP2;ratioP2;P2;SDS_P1;SDS_P2;PMS_P1;PMS_P2;Temp;Humidity;BMP_temperature;BMP_pressure;BME280_temperature;BME280_humidity;BME280_pressure;Samples;Min_cycle;Max_cycle;Signal;HPM_P1;HPM_P2
2023/11/23 00:00:05;;;;;;;10.45;7.82;;;;;;;11.30;100.00;100045.66;5132223;27;20023;-27
2023/11/23 00:02:31;;;;;;;10.88;7.75;;;;;;;11.09;100.00;100043.94;5132604;27;20043;-27
2023/11/23 00:04:56;;;;;;;10.82;7.90;;;;;;;11.15;100.00;100043.16;5131977;27;20070;-26
2023/11/23 00:07:23;;;;;;;10.55;8.50;;;;;;;11.29;100.00;100044.00;5131433;27;20118;-26
2023/11/23 00:09:49;;;;;;;12.88;8.82;;;;;;;11.45;99.04;100048.16;5132231;27;20160;-26
2023/11/23 00:12:14;;;;;;;11.80;9.18;;;;;;;11.20;100.00;100042.56;5132467;27;20435;-26
2023/11/23 00:14:39;;;;;;;11.27;8.23;;;;;;;10.95;100.00;100043.09;5132032;27;20019;-26
2023/11/23 00:17:05;;;;;;;11.68;8.18;;;;;;;10.96;100.00;100052.69;5131789;27;20478;-26
2023/11/23 00:19:30;;;;;;;10.68;8.50;;;;;;;10.84;100.00;100031.16;5132110;27;20021;-26
2023/11/23 00:21:56;;;;;;;13.85;9.40;;;;;;;11.22;100.00;100073.31;5131913;27;20436;-27
2023/11/23 00:24:21;;;;;;;12.52;8.82;;;;;;;11.22;100.00;100078.63;5131669;27;20102;-26
2023/11/23 00:26:47;;;;;;;12.40;8.55;;;;;;;10.91;100.00;100085.25;5131793;27;20020;-26
2023/11/23 00:29:12;;;;;;;10.82;7.78;;;;;;;11.08;100.00;100082.25;5131681;27;20098;-26
2023/11/23 00:31:37;;;;;;;12.85;8.30;;;;;;;11.16;99.89;100079.44;5131965;27;20023;-26
2023/11/23 00:34:06;;;;;;;12.38;8.38;;;;;;;11.11;99.84;100076.53;5131828;27;20047;-26
2023/11/23 00:36:32;;;;;;;11.30;7.88;;;;;;;11.00;100.00;100080.56;5132090;27;20442;-26
2023/11/23 00:38:57;;;;;;;8.98;7.18;;;;;;;10.92;100.00;100080.75;5132333;27;20017;-26
2023/11/23 00:41:23;;;;;;;9.98;7.47;;;;;;;11.04;100.00;100079.19;5132300;27;20023;-26
2023/11/23 00:43:50;;;;;;;9.32;7.30;;;;;;;10.93;100.00;100080.56;5132453;27;20031;-26
2023/11/23 00:46:15;;;;;;;10.25;7.75;;;;;;;11.03;100.00;100085.50;5132245;27;20011;-28
2023/11/23 00:48:41;;;;;;;9.45;6.97;;;;;;;10.86;100.00;100100.19;5132193;27;20020;-26
2023/11/23 00:51:06;;;;;;;10.00;7.13;;;;;;;10.91;100.00;100090.59;5132163;27;20391;-27
2023/11/23 00:53:32;;;;;;;10.85;7.57;;;;;;;11.12;100.00;100094.16;5131412;27;20082;-26
2023/11/23 00:55:57;;;;;;;9.18;7.22;;;;;;;11.01;100.00;100100.88;5131614;27;20483;-26
2023/11/23 00:58:23;;;;;;;12.88;7.80;;;;;;;11.15;100.00;100101.75;5131826;27;20015;-26
2023/11/23 01:00:48;;;;;;;8.93;7.22;;;;;;;11.11;100.00;100111.16;5132028;28;20119;-26
2023/11/23 01:03:14;;;;;;;10.95;8.02;;;;;;;11.11;100.00;100116.47;5131784;28;20011;-26
2023/11/23 01:05:39;;;;;;;9.00;6.53;;;;;;;10.79;100.00;100105.44;5131878;28;20368;-26
2023/11/23 01:08:05;;;;;;;9.00;6.70;;;;;;;10.93;100.00;100117.03;5131130;28;20091;-26
2023/11/23 01:10:31;;;;;;;9.52;7.03;;;;;;;10.98;100.00;100121.75;5131644;28;20030;-27
2023/11/23 01:12:56;;;;;;;10.07;7.55;;;;;;;11.13;100.00;100111.78;5131496;28;20031;-26
2023/11/23 01:15:22;;;;;;;9.10;6.80;;;;;;;10.96;100.00;100108.63;5131772;28;20090;-26
2023/11/23 01:17:47;;;;;;;10.23;7.70;;;;;;;11.12;100.00;100113.63;5133881;27;20094;-27
2023/11/23 01:20:13;;;;;;;10.50;7.28;;;;;;;11.11;100.00;100114.63;5135521;27;20443;-26
2023/11/23 01:22:39;;;;;;;7.45;6.05;;;;;;;11.00;100.00;100109.06;5135458;27;20046;-26
2023/11/23 01:25:08;;;;;;;9.50;6.20;;;;;;;11.11;100.00;100108.50;5135559;27;20096;-26
2023/11/23 01:27:37;;;;;;;8.63;6.57;;;;;;;10.87;100.00;100109.78;5135630;27;20099;-26
2023/11/23 01:30:06;;;;;;;7.00;5.90;;;;;;;10.94;100.00;100121.31;5135600;27;20088;-26
2023/11/23 01:32:32;;;;;;;11.30;7.35;;;;;;;10.91;100.00;100113.75;5135369;27;20023;-26
2023/11/23 01:34:57;;;;;;;13.27;8.82;;;;;;;10.96;100.00;100119.28;5135318;27;20019;-26
2023/11/23 01:37:23;;;;;;;15.23;10.80;;;;;;;11.07;100.00;100115.25;5135227;27;20027;-27
2023/11/23 01:39:48;;;;;;;17.85;11.73;;;;;;;10.87;100.00;100115.97;5135259;27;20554;-27
2023/11/23 01:42:15;;;;;;;15.88;11.32;;;;;;;10.92;100.00;100120.69;5135615;27;20016;-27
2023/11/23 01:44:40;;;;;;;15.98;10.85;;;;;;;11.00;100.00;100117.03;5134771;27;20034;-27
2023/11/23 01:47:10;;;;;;;15.40;9.88;;;;;;;10.91;100.00;100122.53;5135153;27;20015;-27
2023/11/23 01:49:39;;;;;;;12.75;9.27;;;;;;;10.99;100.00;100132.22;5134942;27;20026;-26
2023/11/23 01:52:05;;;;;;;13.60;8.82;;;;;;;11.00;100.00;100125.03;5134913;27;20066;-27
2023/11/23 01:54:31;;;;;;;12.30;8.27;;;;;;;10.96;100.00;100113.94;5134528;27;20130;-27
2023/11/23 01:56:58;;;;;;;12.05;7.72;;;;;;;10.98;100.00;100119.09;5134951;27;20029;-26
2023/11/23 01:59:26;;;;;;;10.40;7.07;;;;;;;10.95;100.00;100117.66;5135000;27;20038;-27
2023/11/23 02:01:52;;;;;;;8.45;7.07;;;;;;;10.94;100.00;100119.47;5134968;27;20472;-27
2023/11/23 02:04:17;;;;;;;9.88;6.95;;;;;;;10.79;100.00;100131.25;5134738;27;20023;-27
2023/11/23 02:06:43;;;;;;;8.98;6.95;;;;;;;10.79;100.00;100141.91;5134734;27;20019;-26
2023/11/23 02:09:10;;;;;;;9.73;6.72;;;;;;;10.71;100.00;100145.53;5134611;27;20034;-27
2023/11/23 02:11:36;;;;;;;11.43;6.93;;;;;;;10.90;100.00;100160.00;5134681;27;20027;-26
2023/11/23 02:14:03;;;;;;;9.23;6.50;;;;;;;10.98;100.00;100151.03;5134936;27;20027;-27
2023/11/23 02:16:29;;;;;;;9.65;7.05;;;;;;;11.25;99.08;100141.34;5134672;27;20019;-27
2023/11/23 02:18:54;;;;;;;8.60;6.53;;;;;;;11.10;100.00;100149.44;5134406;27;20030;-26
2023/11/23 02:21:20;;;;;;;9.90;6.47;;;;;;;10.75;100.00;100144.13;5134971;27;20025;-27
2023/11/23 02:23:45;;;;;;;9.40;6.53;;;;;;;10.73;100.00;100159.47;5134867;27;20406;-27
2023/11/23 02:26:11;;;;;;;10.32;7.28;;;;;;;10.72;100.00;100165.84;5134287;27;20079;-26
2023/11/23 02:28:36;;;;;;;11.57;6.95;;;;;;;10.56;100.00;100157.09;5133597;27;20114;-26
2023/11/23 02:31:02;;;;;;;11.60;7.97;;;;;;;10.72;100.00;100168.50;5134749;27;20023;-26
2023/11/23 02:33:28;;;;;;;13.35;8.38;;;;;;;10.67;100.00;100162.94;5134345;27;20151;-26
2023/11/23 02:35:53;;;;;;;15.25;8.50;;;;;;;10.69;100.00;100143.06;5134122;27;20071;-27
2023/11/23 02:38:19;;;;;;;13.65;8.15;;;;;;;10.75;100.00;100171.56;5134231;27;20023;-26
2023/11/23 02:40:44;;;;;;;15.15;8.27;;;;;;;10.91;100.00;100177.63;5134441;27;20094;-27
2023/11/23 02:43:10;;;;;;;13.23;8.57;;;;;;;10.93;100.00;100173.75;5134101;27;20019;-26
2023/11/23 02:45:36;;;;;;;15.43;8.30;;;;;;;10.83;99.41;100167.13;5134088;27;20050;-26
2023/11/23 02:48:03;;;;;;;13.25;8.65;;;;;;;10.79;100.00;100173.84;5134204;27;20022;-26
2023/11/23 02:50:29;;;;;;;13.05;7.85;;;;;;;10.75;100.00;100176.88;5134021;27;20019;-26
2023/11/23 02:52:54;;;;;;;14.00;8.13;;;;;;;10.66;100.00;100177.22;5133686;27;20111;-26
2023/11/23 02:55:20;;;;;;;12.55;7.47;;;;;;;10.70;100.00;100191.78;5133599;27;20093;-27
2023/11/23 02:57:45;;;;;;;15.57;8.45;;;;;;;10.78;100.00;100190.84;5134170;27;20050;-27
2023/11/23 03:00:12;;;;;;;14.88;8.55;;;;;;;10.64;100.00;100185.44;5133840;27;20027;-27
2023/11/23 03:02:38;;;;;;;14.52;8.73;;;;;;;11.07;99.60;100203.13;5133623;27;20399;-27
2023/11/23 03:05:04;;;;;;;14.65;8.30;;;;;;;10.79;99.50;100200.47;5133772;27;20110;-27
2023/11/23 03:07:29;;;;;;;15.93;9.32;;;;;;;10.68;100.00;100197.34;5134038;27;20489;-27
2023/11/23 03:09:54;;;;;;;14.77;8.65;;;;;;;10.72;100.00;100189.78;5133553;27;20392;-27
2023/11/23 03:12:20;;;;;;;16.77;9.30;;;;;;;10.93;98.73;100184.41;5133803;27;20038;-27
2023/11/23 03:14:46;;;;;;;16.23;8.98;;;;;;;10.71;98.46;100188.94;5133644;27;20044;-27
2023/11/23 03:17:11;;;;;;;19.33;9.80;;;;;;;10.75;97.14;100168.91;5133263;27;20072;-27
2023/11/23 03:19:37;;;;;;;14.35;8.45;;;;;;;10.62;99.78;100208.72;5132862;27;20106;-40
2023/11/23 03:22:03;;;;;;;15.80;8.60;;;;;;;10.53;100.00;100205.41;5133227;27;20027;-27
2023/11/23 03:24:28;;;;;;;14.40;8.57;;;;;;;10.33;100.00;100215.03;5133367;27;20027;-27
2023/11/23 03:26:53;;;;;;;15.07;8.50;;;;;;;10.36;100.00;100212.81;5133257;27;20382;-40
2023/11/23 03:29:19;;;;;;;16.02;7.97;;;;;;;10.24;100.00;100230.25;5133155;27;20163;-40
2023/11/23 03:31:44;;;;;;;14.60;8.02;;;;;;;10.21;100.00;100220.00;5133206;27;20023;-39
2023/11/23 03:34:10;;;;;;;14.82;8.57;;;;;;;10.41;100.00;100230.03;5133016;27;20173;-41
2023/11/23 03:36:36;;;;;;;13.63;7.82;;;;;;;10.20;100.00;100221.00;5132771;27;20124;-41
2023/11/23 03:39:01;;;;;;;13.38;8.20;;;;;;;10.45;100.00;100234.81;5132714;27;20027;-38
2023/11/23 03:41:26;;;;;;;18.05;8.68;;;;;;;10.31;100.00;100236.50;5132649;27;20031;-40
2023/11/23 03:43:52;;;;;;;12.63;7.93;;;;;;;10.13;100.00;100230.78;5133026;27;20059;-39
2023/11/23 03:46:17;;;;;;;13.68;7.93;;;;;;;10.23;100.00;100233.94;5132615;27;20475;-39
2023/11/23 03:48:43;;;;;;;12.23;7.88;;;;;;;10.42;100.00;100237.84;5132693;27;20026;-37
2023/11/23 03:51:11;;;;;;;11.23;7.03;;;;;;;10.30;100.00;100228.66;5131646;27;20361;-39
2023/11/23 03:53:37;;;;;;;10.80;6.05;;;;;;;10.23;100.00;100243.75;5132204;27;20030;-40
2023/11/23 03:56:02;;;;;;;7.90;5.60;;;;;;;10.08;100.00;100236.66;5132373;27;20027;-40
2023/11/23 03:58:27;;;;;;;7.85;5.25;;;;;;;10.03;100.00;100243.53;5132581;27;20105;-39
2023/11/23 04:00:53;;;;;;;7.43;5.50;;;;;;;9.99;100.00;100261.69;5126805;27;20028;-39
2023/11/23 04:03:19;;;;;;;9.80;6.10;;;;;;;9.88;100.00;100256.84;5119549;27;20101;-40
2023/11/23 04:05:44;;;;;;;7.50;5.50;;;;;;;10.11;100.00;100260.22;5131653;27;20427;-42
2023/11/23 04:08:09;;;;;;;7.95;5.07;;;;;;;10.04;100.00;100263.81;5131949;27;20423;-40
2023/11/23 04:10:35;;;;;;;9.05;6.13;;;;;;;10.18;99.78;100266.44;5132348;27;20436;-40
2023/11/23 04:13:00;;;;;;;8.48;6.07;;;;;;;10.20;99.46;100274.22;5132186;27;20034;-39
2023/11/23 04:15:26;;;;;;;10.30;6.65;;;;;;;10.14;100.00;100272.31;5132044;27;20094;-41
2023/11/23 04:17:51;;;;;;;11.30;6.05;;;;;;;9.98;100.00;100271.50;5132147;27;20023;-40
2023/11/23 04:20:16;;;;;;;8.07;5.93;;;;;;;10.00;100.00;100263.34;5132211;27;20029;-40
2023/11/23 04:22:42;;;;;;;8.75;5.63;;;;;;;9.99;99.77;100269.69;5132533;27;20507;-40
2023/11/23 04:25:08;;;;;;;8.07;5.72;;;;;;;10.02;98.69;100279.13;5132064;27;20030;-40
2023/11/23 04:27:33;;;;;;;8.77;5.55;;;;;;;9.98;99.78;100273.38;5131603;27;20118;-40
2023/11/23 04:29:59;;;;;;;7.28;5.40;;;;;;;9.97;99.23;100287.66;5131088;27;20484;-40
2023/11/23 04:32:24;;;;;;;8.20;5.43;;;;;;;10.02;99.10;100287.94;5132309;27;20451;-38
2023/11/23 04:34:50;;;;;;;7.18;5.50;;;;;;;9.97;99.69;100275.16;5132082;27;20026;-40
2023/11/23 04:37:15;;;;;;;6.97;5.40;;;;;;;9.90;99.45;100274.28;5131707;27;20033;-38
2023/11/23 04:39:40;;;;;;;9.18;6.07;;;;;;;10.04;98.59;100304.50;5130016;27;20027;-37
2023/11/23 04:42:07;;;;;;;7.18;5.70;;;;;;;9.97;98.97;100280.50;5131913;27;20027;-41
2023/11/23 04:44:32;;;;;;;7.22;5.40;;;;;;;10.08;97.59;100278.38;5132063;27;20093;-40
2023/11/23 04:46:58;;;;;;;7.22;5.70;;;;;;;9.88;99.71;100286.09;5131787;27;20539;-40
2023/11/23 04:49:23;;;;;;;7.35;5.13;;;;;;;10.07;98.68;100303.31;5131734;27;20031;-40
2023/11/23 04:51:49;;;;;;;6.32;4.88;;;;;;;10.09;96.90;100290.66;5127254;27;20034;-40
2023/11/23 04:54:14;;;;;;;11.43;5.15;;;;;;;10.16;96.63;100294.22;5131197;27;20054;-40
2023/11/23 04:56:40;;;;;;;8.23;5.32;;;;;;;10.25;96.65;100301.06;5131128;27;20035;-40
2023/11/23 04:59:05;;;;;;;5.38;4.43;;;;;;;10.13;96.43;100291.94;5131209;27;20027;-41
2023/11/23 05:01:31;;;;;;;7.28;5.10;;;;;;;10.32;96.10;100288.72;5131264;28;20031;-41
2023/11/23 05:03:57;;;;;;;6.15;4.47;;;;;;;10.14;95.41;100302.38;5131369;27;20046;-39
2023/11/23 05:06:24;;;;;;;8.10;5.30;;;;;;;10.37;94.86;100301.44;5130250;28;20421;-40
2023/11/23 05:08:49;;;;;;;8.02;5.68;;;;;;;10.32;94.47;100303.84;5129312;28;20468;-40
2023/11/23 05:11:14;;;;;;;11.63;7.50;;;;;;;10.48;93.79;100302.78;5129240;28;20118;-40
2023/11/23 05:13:40;;;;;;;12.90;8.55;;;;;;;10.67;92.06;100304.81;5129383;28;20011;-40
2023/11/23 05:16:06;;;;;;;15.00;7.72;;;;;;;10.36;94.41;100321.09;5129443;27;20729;-40
2023/11/23 05:18:32;;;;;;;8.38;6.13;;;;;;;10.45;93.10;100303.16;5129422;28;20031;-40
2023/11/23 05:20:57;;;;;;;7.55;5.22;;;;;;;10.11;93.38;100302.78;5129794;28;20027;-42
2023/11/23 05:23:24;;;;;;;8.07;4.95;;;;;;;9.88;95.40;100310.88;5112518;28;20034;-40
2023/11/23 05:25:49;;;;;;;6.75;4.60;;;;;;;9.95;94.46;100305.63;5112238;28;20578;-40
2023/11/23 05:28:15;;;;;;;6.63;4.68;;;;;;;9.94;95.06;100320.75;5131174;28;20106;-41
2023/11/23 05:30:40;;;;;;;8.23;5.28;;;;;;;9.96;95.39;100310.75;5131437;27;20111;-39
2023/11/23 05:33:05;;;;;;;9.35;6.57;;;;;;;10.07;95.33;100319.25;5131493;28;20027;-41
2023/11/23 05:35:31;;;;;;;10.23;6.43;;;;;;;10.13;94.24;100310.56;5131878;28;20066;-40
2023/11/23 05:37:57;;;;;;;10.82;7.75;;;;;;;10.12;95.16;100331.00;5131916;28;20023;-42
2023/11/23 05:40:23;;;;;;;11.30;6.80;;;;;;;10.31;94.61;100334.94;5131831;28;20111;-42
2023/11/23 05:42:49;;;;;;;9.18;5.90;;;;;;;10.10;95.37;100321.56;5131914;28;20055;-42
2023/11/23 05:45:15;;;;;;;10.73;5.55;;;;;;;12.65;97.96;100337.34;5130627;28;20447;-40
2023/11/23 05:47:41;;;;;;;7.32;5.25;;;;;;;12.29;85.41;100337.66;5131450;28;20100;-41
2023/11/23 05:50:07;;;;;;;7.43;5.43;;;;;;;11.79;85.99;100334.34;5131395;28;20487;-41
2023/11/23 05:52:32;;;;;;;9.02;6.50;;;;;;;11.27;86.64;100339.97;5130388;28;20127;-40
2023/11/23 05:54:57;;;;;;;10.40;6.40;;;;;;;10.61;91.47;100339.38;5129813;28;20047;-41
2023/11/23 05:57:24;;;;;;;12.30;7.00;;;;;;;10.35;92.85;100335.38;5129404;28;20035;-43
2023/11/23 05:59:51;;;;;;;11.98;8.85;;;;;;;10.34;93.13;100349.72;5128816;28;20031;-40
2023/11/23 06:02:17;;;;;;;10.48;7.47;;;;;;;10.26;93.91;100358.59;5129096;28;20094;-42
2023/11/23 06:04:42;;;;;;;9.38;7.07;;;;;;;10.24;94.29;100359.78;5131263;27;20463;-41
2023/11/23 06:07:10;;;;;;;11.85;7.43;;;;;;;10.12;95.04;100365.56;5123999;27;20483;-42
2023/11/23 06:09:38;;;;;;;10.68;7.15;;;;;;;10.15;94.92;100364.38;5128194;27;20084;-41
2023/11/23 06:12:04;;;;;;;11.57;7.70;;;;;;;9.98;95.71;100369.06;5132903;27;20088;-39
2023/11/23 06:14:33;;;;;;;8.75;6.55;;;;;;;10.29;94.79;100365.38;5133079;27;20095;-39
2023/11/23 06:16:58;;;;;;;8.68;6.30;;;;;;;10.12;94.91;100376.22;5134695;27;20051;-41
2023/11/23 06:19:24;;;;;;;8.95;6.75;;;;;;;10.37;94.38;100370.59;5134745;27;20077;-40
2023/11/23 06:21:50;;;;;;;10.70;6.53;;;;;;;10.29;92.98;100368.03;5134424;27;20027;-41
2023/11/23 06:24:16;;;;;;;12.23;6.20;;;;;;;10.49;92.86;100355.81;5134259;27;20040;-40
2023/11/23 06:26:42;;;;;;;9.93;6.28;;;;;;;10.54;91.25;100357.91;5134014;27;20031;-42
2023/11/23 06:29:08;;;;;;;10.38;5.60;;;;;;;10.14;92.90;100370.72;5133502;27;20401;-42
2023/11/23 06:31:34;;;;;;;8.73;5.97;;;;;;;10.43;91.65;100361.88;5133534;27;20034;-41
2023/11/23 06:34:00;;;;;;;7.97;5.82;;;;;;;10.16;93.53;100366.03;5133369;27;20026;-40
2023/11/23 06:36:25;;;;;;;8.20;5.82;;;;;;;10.11;93.52;100374.56;5133323;27;20213;-40
2023/11/23 06:38:50;;;;;;;10.77;6.40;;;;;;;10.00;95.43;100377.69;5133253;27;20100;-39
2023/11/23 06:41:20;;;;;;;8.25;5.80;;;;;;;10.26;92.72;100384.34;5133455;27;20027;-40
2023/11/23 06:43:50;;;;;;;8.10;5.95;;;;;;;10.17;92.45;100376.47;5134357;27;20399;-39
2023/11/23 06:46:19;;;;;;;9.32;5.90;;;;;;;10.18;92.51;100387.94;5133815;27;20054;-40
2023/11/23 06:48:45;;;;;;;7.53;5.60;;;;;;;9.93;93.70;100368.78;5133976;27;20053;-39
2023/11/23 06:51:11;;;;;;;8.10;5.43;;;;;;;10.07;92.54;100380.44;5133868;27;20448;-41
2023/11/23 06:53:44;;;;;;;7.22;5.28;;;;;;;9.82;93.29;100371.91;5133242;27;20023;-40
2023/11/23 06:56:12;;;;;;;7.43;5.35;;;;;;;9.83;93.60;100373.56;5133338;27;20034;-41
2023/11/23 06:58:42;;;;;;;5.88;4.35;;;;;;;9.61;93.69;100376.09;5133369;27;20055;-40
2023/11/23 07:01:11;;;;;;;7.00;4.63;;;;;;;9.78;92.87;100376.75;5133468;27;20015;-42
2023/11/23 07:03:41;;;;;;;8.02;5.20;;;;;;;9.87;92.74;100369.53;5133574;27;20336;-37
2023/11/23 07:06:07;;;;;;;7.13;4.97;;;;;;;10.40;90.97;100372.91;5133429;27;20030;-42
2023/11/23 07:08:34;;;;;;;8.13;5.07;;;;;;;10.65;88.39;100384.03;5133286;27;20419;-41
2023/11/23 07:11:00;;;;;;;6.80;5.20;;;;;;;11.02;86.63;100376.81;5133211;27;20027;-43
2023/11/23 07:13:26;;;;;;;6.78;4.72;;;;;;;11.05;84.56;100388.94;5133308;27;20031;-40
2023/11/23 07:15:53;;;;;;;12.23;5.40;;;;;;;11.06;84.71;100386.09;5132643;27;20016;-41
2023/11/23 07:18:18;;;;;;;7.63;5.10;;;;;;;11.35;84.21;100392.28;5114862;27;20447;-41
2023/11/23 07:20:44;;;;;;;8.32;5.40;;;;;;;10.54;87.40;100403.16;5133501;27;20105;-40
2023/11/23 07:23:10;;;;;;;8.05;5.25;;;;;;;10.14;89.16;100410.59;5133136;27;20056;-38
2023/11/23 07:25:42;;;;;;;7.07;5.45;;;;;;;10.06;90.59;100403.53;5132876;27;20110;-41
2023/11/23 07:28:09;;;;;;;7.97;5.22;;;;;;;10.12;91.27;100396.66;5132850;27;20409;-40
2023/11/23 07:30:36;;;;;;;8.20;5.70;;;;;;;10.02;91.22;100394.28;5132619;27;20027;-39
2023/11/23 07:33:02;;;;;;;8.25;5.40;;;;;;;10.54;88.58;100401.31;5133027;27;20042;-40
2023/11/23 07:35:28;;;;;;;7.20;5.25;;;;;;;10.51;87.59;100382.25;5132845;27;20459;-41
2023/11/23 07:37:53;;;;;;;8.35;5.60;;;;;;;10.40;88.51;100399.50;5133060;27;20171;-42
2023/11/23 07:40:19;;;;;;;9.27;5.45;;;;;;;10.27;89.31;100402.78;5132691;27;20023;-41
2023/11/23 07:42:44;;;;;;;7.30;5.15;;;;;;;10.60;88.70;100390.94;5132879;27;20100;-39
2023/11/23 07:45:10;;;;;;;8.95;5.53;;;;;;;10.77;87.24;100387.00;5114270;27;20396;-41
2023/11/23 07:47:36;;;;;;;9.20;5.45;;;;;;;10.75;87.75;100395.19;5132779;27;20023;-40
2023/11/23 07:50:01;;;;;;;10.60;5.47;;;;;;;10.88;85.72;100393.69;5132786;27;20497;-41
2023/11/23 07:52:27;;;;;;;7.72;5.43;;;;;;;10.73;86.22;100399.06;5132438;27;20441;-39
2023/11/23 07:54:52;;;;;;;6.47;4.60;;;;;;;10.51;87.22;100399.03;5132103;27;20047;-44
2023/11/23 07:57:19;;;;;;;9.95;5.25;;;;;;;10.89;86.50;100387.34;5132315;27;20027;-40
2023/11/23 07:59:45;;;;;;;8.80;5.03;;;;;;;11.10;84.47;100382.03;5132768;27;20030;-43
2023/11/23 08:02:10;;;;;;;6.50;4.53;;;;;;;10.67;86.42;100405.97;5132569;27;20103;-40
2023/11/23 08:04:35;;;;;;;8.50;4.70;;;;;;;10.60;87.23;100402.38;5132520;27;20494;-40
2023/11/23 08:07:01;;;;;;;9.13;4.85;;;;;;;10.26;88.89;100400.31;5132590;27;20035;-42
2023/11/23 08:09:27;;;;;;;7.45;5.38;;;;;;;10.42;88.41;100399.34;5132610;27;20027;-41
2023/11/23 08:11:53;;;;;;;7.20;5.30;;;;;;;10.61;87.42;100398.72;5132448;27;20087;-41
2023/11/23 08:14:20;;;;;;;7.72;5.15;;;;;;;10.58;88.45;100396.44;5132218;27;20034;-42
2023/11/23 08:16:45;;;;;;;8.25;5.22;;;;;;;10.48;87.48;100399.41;5132340;27;20019;-41
2023/11/23 08:19:14;;;;;;;8.38;5.13;;;;;;;10.30;89.83;100398.94;5132421;27;20135;-41
2023/11/23 08:21:40;;;;;;;9.13;5.35;;;;;;;10.46;88.61;100390.78;5133014;27;20398;-42
2023/11/23 08:24:06;;;;;;;7.55;5.15;;;;;;;10.86;86.20;100406.38;5132366;27;20052;-41
2023/11/23 08:26:31;;;;;;;6.63;4.85;;;;;;;10.88;85.61;100409.66;5131764;27;20482;-40
2023/11/23 08:28:57;;;;;;;6.68;4.78;;;;;;;10.91;85.57;100412.78;5132046;27;20035;-40
2023/11/23 08:31:28;;;;;;;6.70;5.15;;;;;;;10.64;86.31;100413.50;5132314;27;20041;-45
2023/11/23 08:33:53;;;;;;;7.25;4.82;;;;;;;10.20;88.24;100417.03;5132091;27;20043;-40
2023/11/23 08:36:19;;;;;;;7.22;5.05;;;;;;;10.57;86.46;100414.25;5132030;27;20243;-41
2023/11/23 08:38:44;;;;;;;7.57;5.60;;;;;;;10.70;85.67;100421.56;5132126;27;20106;-43
2023/11/23 08:41:11;;;;;;;8.43;5.53;;;;;;;10.70;85.39;100407.41;5131847;27;20543;-41
2023/11/23 08:43:37;;;;;;;12.50;6.18;;;;;;;11.01;84.14;100416.97;5132020;27;20030;-40
2023/11/23 08:46:03;;;;;;;7.20;5.85;;;;;;;11.14;82.96;100411.78;5131869;27;20023;-41
2023/11/23 08:48:29;;;;;;;7.82;6.00;;;;;;;10.93;84.71;100417.91;5131972;27;20080;-42
2023/11/23 08:50:54;;;;;;;7.95;5.97;;;;;;;10.32;86.86;100412.94;5131745;27;20498;-40
2023/11/23 08:53:19;;;;;;;7.18;5.50;;;;;;;10.42;86.92;100415.28;5131414;27;20042;-41
2023/11/23 08:55:48;;;;;;;9.30;6.30;;;;;;;10.54;87.01;100403.16;5131672;27;20130;-37
2023/11/23 08:58:14;;;;;;;8.60;5.70;;;;;;;10.63;86.40;100409.19;5131818;27;20054;-43
2023/11/23 09:00:40;;;;;;;8.70;6.47;;;;;;;10.86;84.54;100406.38;5132121;28;20460;-43
2023/11/23 09:03:07;;;;;;;8.45;6.38;;;;;;;10.84;84.68;100387.91;5131545;28;20471;-43
2023/11/23 09:05:32;;;;;;;7.88;6.10;;;;;;;10.78;86.04;100388.69;5131718;28;20072;-42
2023/11/23 09:07:57;;;;;;;9.23;6.40;;;;;;;10.09;89.54;100392.56;5131624;28;20027;-39
2023/11/23 09:10:23;;;;;;;8.32;6.15;;;;;;;10.39;88.26;100383.72;5131716;28;20110;-40
2023/11/23 09:12:50;;;;;;;8.10;6.10;;;;;;;10.17;88.99;100384.47;5131519;28;20027;-40
2023/11/23 09:15:16;;;;;;;8.98;6.53;;;;;;;10.11;89.74;100376.38;5131733;28;20023;-41
2023/11/23 09:17:41;;;;;;;9.73;6.18;;;;;;;10.07;90.32;100377.75;5131560;28;20023;-39
2023/11/23 09:20:08;;;;;;;10.75;6.78;;;;;;;10.45;88.30;100375.00;5131729;27;20031;-41
2023/11/23 09:22:35;;;;;;;10.02;6.80;;;;;;;10.47;87.20;100365.84;5131714;28;20054;-40
2023/11/23 09:25:02;;;;;;;10.30;6.75;;;;;;;10.43;87.52;100369.84;5131867;28;20474;-42
2023/11/23 09:27:28;;;;;;;8.43;6.38;;;;;;;10.46;87.14;100364.16;5131764;28;20022;-42
2023/11/23 09:29:54;;;;;;;11.88;6.80;;;;;;;10.57;85.76;100365.53;5131427;28;20050;-41
2023/11/23 09:32:20;;;;;;;9.82;7.55;;;;;;;10.44;85.84;100371.50;5131451;27;20042;-40
2023/11/23 09:34:45;;;;;;;8.55;6.47;;;;;;;10.17;87.28;100378.31;5131779;28;20027;-45
2023/11/23 09:37:11;;;;;;;9.95;6.53;;;;;;;10.20;87.10;100366.47;5131611;28;20471;-41
2023/11/23 09:39:36;;;;;;;9.60;6.35;;;;;;;10.30;87.02;100380.31;5135175;27;20026;-40
2023/11/23 09:42:05;;;;;;;9.77;6.90;;;;;;;9.67;89.35;100383.38;5135767;27;20489;-43
2023/11/23 09:44:34;;;;;;;12.55;7.50;;;;;;;10.39;88.21;100378.41;5135463;27;20114;-43
2023/11/23 09:47:00;;;;;;;10.55;6.45;;;;;;;10.65;85.72;100376.03;5135320;27;20058;-42
2023/11/23 09:49:26;;;;;;;9.32;6.32;;;;;;;10.64;85.43;100373.56;5135742;27;20053;-42
2023/11/23 09:51:55;;;;;;;8.18;6.43;;;;;;;10.73;85.79;100369.78;5135056;27;20015;-41
2023/11/23 09:54:23;;;;;;;8.70;6.38;;;;;;;10.95;84.77;100366.09;5134952;27;20092;-42
2023/11/23 09:56:48;;;;;;;9.55;7.35;;;;;;;10.91;84.59;100345.41;5135298;27;20447;-41
2023/11/23 09:59:14;;;;;;;8.82;6.18;;;;;;;11.07;83.26;100357.59;5135120;27;20030;-42
2023/11/23 10:01:54;;;;;;;10.52;6.40;;;;;;;10.97;83.84;100352.59;5135117;27;20034;-43
2023/11/23 10:04:19;;;;;;;8.73;6.05;;;;;;;10.61;84.94;100360.66;5135023;27;20406;-43
2023/11/23 10:06:45;;;;;;;10.20;7.60;;;;;;;10.52;86.06;100360.75;5135022;27;20501;-42
2023/11/23 10:09:17;;;;;;;11.10;6.97;;;;;;;10.27;86.13;100354.09;5135202;27;20101;-43
2023/11/23 10:11:42;;;;;;;11.85;7.07;;;;;;;10.36;86.67;100353.81;5134936;27;20019;-40
2023/11/23 10:14:08;;;;;;;10.52;7.28;;;;;;;10.56;85.16;100351.38;5135191;27;20023;-44
2023/11/23 10:16:34;;;;;;;12.95;7.95;;;;;;;10.22;87.03;100337.84;5135171;27;20026;-41
2023/11/23 10:18:59;;;;;;;10.35;8.10;;;;;;;10.59;86.22;100333.41;5134780;27;20015;-41
2023/11/23 10:21:25;;;;;;;9.98;7.65;;;;;;;10.86;84.54;100329.16;5134743;27;20390;-43
2023/11/23 10:23:50;;;;;;;11.60;8.35;;;;;;;10.65;85.13;100332.63;5134832;27;20138;-40
2023/11/23 10:26:16;;;;;;;9.80;7.65;;;;;;;10.52;86.33;100323.50;5134886;27;20480;-42
2023/11/23 10:28:41;;;;;;;11.50;8.50;;;;;;;10.57;86.15;100306.97;5134769;27;20027;-44
2023/11/23 10:31:07;;;;;;;13.15;8.52;;;;;;;10.60;85.89;100330.53;5134886;27;20011;-41
2023/11/23 10:33:37;;;;;;;15.32;8.40;;;;;;;11.00;83.73;100327.44;5134743;27;20019;-40
2023/11/23 10:36:05;;;;;;;;;;;;;;;11.04;83.84;100326.88;5134454;27;20015;-42
2023/11/23 10:38:39;;;;;;;10.23;7.68;;;;;;;11.52;82.17;100312.88;5134575;27;19998;-44
2023/11/23 10:41:08;;;;;;;10.13;7.65;;;;;;;11.82;80.33;100316.13;5134002;27;20110;-40
2023/11/23 10:43:37;;;;;;;13.38;7.43;;;;;;;11.40;81.17;100319.75;5134545;27;20041;-42
2023/11/23 10:46:11;;;;;;;11.60;8.00;;;;;;;10.95;82.30;100314.69;5134150;27;20027;-41
2023/11/23 10:48:38;;;;;;;13.10;7.57;;;;;;;10.90;82.88;100315.25;5134185;27;20049;-45
2023/11/23 10:51:05;;;;;;;10.30;7.63;;;;;;;10.67;85.08;100306.66;5133583;27;20023;-41
2023/11/23 10:53:31;;;;;;;10.80;7.78;;;;;;;10.82;84.79;100310.06;5133771;27;20015;-46
2023/11/23 10:56:16;;;;;;;14.38;8.25;;;;;;;11.08;83.00;100295.31;5134378;27;20102;-41
2023/11/23 10:58:44;;;;;;;11.55;7.72;;;;;;;11.09;82.65;100292.47;5134055;27;20023;-43
2023/11/23 11:01:11;;;;;;;12.10;8.10;;;;;;;10.94;83.53;100291.72;5134231;27;20490;-40
2023/11/23 11:03:38;;;;;;;11.07;7.93;;;;;;;10.45;85.30;100284.53;5133987;27;20023;-44
2023/11/23 11:06:11;;;;;;;10.35;7.65;;;;;;;10.64;85.25;100283.06;5133688;27;20504;-41
2023/11/23 11:08:38;;;;;;;11.27;7.72;;;;;;;10.96;83.67;100281.72;5134153;27;20015;-41
2023/11/23 11:11:12;;;;;;;12.85;8.63;;;;;;;10.95;84.10;100278.22;5134035;27;20039;-47
2023/11/23 11:13:42;;;;;;;14.13;8.77;;;;;;;11.24;83.14;100273.72;5134028;27;20387;-45